createdAt,value
2019-01-02T00:01:04.202Z,6.01
2019-01-02T00:03:52.391Z,6.03
2019-01-02T00:06:33.749Z,6.05
2019-01-02T00:09:15.573Z,5.98
2019-01-02T00:11:56.393Z,5.95
2019-01-02T00:14:44.238Z,5.96
2019-01-02T00:17:24.661Z,6.03
2019-01-02T00:20:13.893Z,6.01
2019-01-02T00:22:54.747Z,5.98
2019-01-02T00:25:42.613Z,5.99
2019-01-02T00:28:45.461Z,5.97
2019-01-02T00:31:33.902Z,6.00
2019-01-02T00:34:14.556Z,6.01
2019-01-02T00:37:02.381Z,6.01
2019-01-02T00:40:05.179Z,6.04
2019-01-02T00:42:53.506Z,6.08
2019-01-02T00:45:34.783Z,6.03
2019-01-02T00:48:22.781Z,6.04
2019-01-02T00:51:25.166Z,6.12
2019-01-02T00:54:13.350Z,6.17
2019-01-02T00:56:54.449Z,6.07
2019-01-02T00:59:42.404Z,6.13
2019-01-02T01:02:45.350Z,6.12
2019-01-02T01:05:33.297Z,6.08
2019-01-02T01:08:14.916Z,6.06
2019-01-02T01:10:56.727Z,6.00
2019-01-02T01:13:37.632Z,5.94
2019-01-02T01:16:25.969Z,5.98
2019-01-02T01:19:28.208Z,5.91
2019-01-02T01:22:16.159Z,5.88
2019-01-02T01:24:56.728Z,5.83
2019-01-02T01:27:44.921Z,5.84
2019-01-02T01:30:47.808Z,5.74
2019-01-02T01:33:36.136Z,5.77
2019-01-02T01:36:16.914Z,5.76
2019-01-02T01:42:52.711Z,5.64
2019-01-02T01:45:32.371Z,5.66
2019-01-02T01:48:13.622Z,5.62
2019-01-02T01:51:01.695Z,5.62
2019-01-02T01:53:42.809Z,5.64
2019-01-02T01:56:30.925Z,5.61
2019-01-02T01:59:12.134Z,5.58
2019-01-02T02:02:00.118Z,5.53
2019-01-02T02:04:43.239Z,5.49
2019-01-02T02:07:31.227Z,5.48
2019-01-02T02:10:33.484Z,5.48
2019-01-02T02:13:22.072Z,5.42
2019-01-02T02:16:03.390Z,5.35
2019-01-02T02:18:51.418Z,5.37
2019-01-02T02:21:32.397Z,5.31
2019-01-02T02:24:20.696Z,5.27
2019-01-02T02:27:03.308Z,5.25
2019-01-02T02:29:31.885Z,5.24
2019-01-02T02:32:13.233Z,5.18
2019-01-02T02:35:01.458Z,5.17
2019-01-02T02:37:42.633Z,5.23
2019-01-02T02:40:30.838Z,5.25
2019-01-02T02:43:12.165Z,5.23
2019-01-02T02:46:00.309Z,5.25
2019-01-02T02:49:03.320Z,5.21
2019-01-02T02:51:51.597Z,5.13
2019-01-02T02:54:32.361Z,5.11
2019-01-02T02:57:20.501Z,5.16
2019-01-02T03:00:05.966Z,5.17
2019-01-02T03:02:54.532Z,5.14
2019-01-02T03:05:35.608Z,5.21
2019-01-02T03:08:24.009Z,5.20
2019-01-02T03:11:26.602Z,5.20
2019-01-02T03:14:14.897Z,5.22
2019-01-02T03:17:16.873Z,5.21
2019-01-02T03:20:06.495Z,5.14
2019-01-02T03:23:09.140Z,5.16
2019-01-02T03:25:57.523Z,5.09
2019-01-02T03:28:58.040Z,5.09
2019-01-02T03:31:47.284Z,5.06
2019-01-02T03:34:49.884Z,5.06
2019-01-02T03:37:37.793Z,5.06
2019-01-02T03:40:20.829Z,5.13
2019-01-02T03:43:08.841Z,5.16
2019-01-02T03:45:49.951Z,5.15
2019-01-02T03:48:38.019Z,5.11
2019-01-02T03:51:18.790Z,5.12
2019-01-02T03:54:06.820Z,5.10
2019-01-02T03:56:47.859Z,5.10
2019-01-02T03:59:35.822Z,5.08
2019-01-02T04:02:17.355Z,5.14
2019-01-02T04:05:07.114Z,5.12
2019-01-02T04:07:55.120Z,5.10
2019-01-02T04:10:43.070Z,5.21
2019-01-02T04:13:23.597Z,5.17
2019-01-02T04:16:11.540Z,5.23
2019-01-02T04:18:53.086Z,5.14
2019-01-02T04:21:41.074Z,5.05
2019-01-02T04:24:21.962Z,5.04
2019-01-02T04:27:09.790Z,5.03
2019-01-02T04:29:50.197Z,5.02
2019-01-02T04:32:38.073Z,5.05
2019-01-02T04:35:18.956Z,5.06
2019-01-02T04:38:06.877Z,5.04
2019-01-02T04:40:47.839Z,5.07
2019-01-02T04:43:35.702Z,5.10
2019-01-02T04:46:18.723Z,5.08
2019-01-02T04:49:06.640Z,5.04
2019-01-02T04:51:47.643Z,5.10
2019-01-02T04:54:35.613Z,5.02
2019-01-02T04:57:16.792Z,5.02
2019-01-02T05:00:08.345Z,4.94
2019-01-02T05:02:49.855Z,4.93
2019-01-02T05:05:38.164Z,4.92
2019-01-02T05:08:19.850Z,4.91
2019-01-02T05:11:07.878Z,4.83
2019-01-02T05:13:49.080Z,4.83
2019-01-02T05:16:37.061Z,4.85
2019-01-02T05:19:18.102Z,4.86
2019-01-02T05:22:06.036Z,4.91
2019-01-02T05:24:47.506Z,4.84
2019-01-02T05:27:35.423Z,4.82
2019-01-02T05:30:17.055Z,4.79
2019-01-02T05:33:04.995Z,4.78
2019-01-02T05:35:58.407Z,4.76
2019-01-02T05:38:46.343Z,4.76
2019-01-02T05:41:27.157Z,4.75
2019-01-02T05:44:15.075Z,4.74
2019-01-02T05:46:56.198Z,4.73
2019-01-02T05:49:44.787Z,4.79
2019-01-02T05:52:25.254Z,4.76
2019-01-02T05:55:13.338Z,4.70
2019-01-02T05:57:54.594Z,4.68
2019-01-02T06:00:42.724Z,4.65
2019-01-02T06:03:23.553Z,4.68
2019-01-02T06:05:52.277Z,4.71
2019-01-02T06:08:32.892Z,4.73
2019-01-02T06:11:21.406Z,4.72
2019-01-02T06:14:02.107Z,4.69
2019-01-02T06:16:50.033Z,4.68
2019-01-02T06:19:33.001Z,4.67
2019-01-02T06:22:20.910Z,4.69
2019-01-02T06:24:59.983Z,4.69
2019-01-02T06:27:47.985Z,4.67
2019-01-02T06:30:29.344Z,4.61
2019-01-02T06:33:17.343Z,4.65
2019-01-02T06:35:58.411Z,4.56
2019-01-02T06:38:46.491Z,4.49
2019-01-02T06:41:27.594Z,4.52
2019-01-02T06:44:15.564Z,4.52
2019-01-02T06:46:56.597Z,4.52
2019-01-02T06:49:44.677Z,4.48
2019-01-02T06:52:25.365Z,4.40
2019-01-02T06:55:13.405Z,4.39
2019-01-02T06:57:54.823Z,4.39
2019-01-02T07:00:43.509Z,4.39
2019-01-02T07:03:24.801Z,4.39
2019-01-02T07:06:12.625Z,4.39
2019-01-02T07:08:53.621Z,4.36
2019-01-02T07:11:41.838Z,4.32
2019-01-02T07:14:22.990Z,4.25
2019-01-02T07:17:10.897Z,4.25
2019-01-02T07:19:51.735Z,4.24
2019-01-02T07:22:39.865Z,4.30
2019-01-02T07:25:20.508Z,4.26
2019-01-02T07:28:08.346Z,4.32
2019-01-02T07:30:49.795Z,4.26
2019-01-02T07:34:00.315Z,4.20
2019-01-02T07:36:56.375Z,4.13
2019-01-02T07:40:23.281Z,4.12
2019-01-02T07:43:14.962Z,4.14
2019-01-02T07:46:29.081Z,4.07
2019-01-02T07:49:32.269Z,4.03
2019-01-02T07:52:39.584Z,4.06
2019-01-02T07:55:20.631Z,4.02
2019-01-02T07:58:20.878Z,4.05
2019-01-02T08:01:36.871Z,4.00
2019-01-02T08:04:39.934Z,4.01
2019-01-02T08:07:50.035Z,4.01
2019-01-02T08:10:56.648Z,3.99
2019-01-02T08:14:23.690Z,3.94
2019-01-02T08:17:27.408Z,3.92
2019-01-02T08:20:42.507Z,3.95
2019-01-02T08:23:30.986Z,3.99
2019-01-02T08:26:57.931Z,3.96
2019-01-02T08:29:58.116Z,3.98
2019-01-02T08:33:24.969Z,4.04
2019-01-02T08:36:25.485Z,4.02
2019-01-02T08:39:40.251Z,4.08
2019-01-02T08:42:46.616Z,4.11
2019-01-02T08:46:14.558Z,4.12
2019-01-02T08:49:15.247Z,4.16
2019-01-02T08:52:42.123Z,4.20
2019-01-02T08:55:42.843Z,4.19
2019-01-02T08:59:09.713Z,4.22
2019-01-02T09:02:10.188Z,4.23
2019-01-02T09:05:37.066Z,4.29
2019-01-02T09:08:29.971Z,4.26
2019-01-02T09:11:46.438Z,4.29
2019-01-02T09:14:36.172Z,4.36
2019-01-02T09:18:03.168Z,4.42
2019-01-02T09:21:06.549Z,4.47
2019-01-02T09:24:07.111Z,4.49
2019-01-02T09:27:14.273Z,4.48
2019-01-02T09:30:15.500Z,4.50
2019-01-02T09:33:42.384Z,4.50
2019-01-02T09:36:42.349Z,4.57
2019-01-02T09:39:50.158Z,4.58
2019-01-02T09:43:02.364Z,4.64
2019-01-02T09:46:13.894Z,4.66
2019-01-02T09:49:00.846Z,4.68
2019-01-02T09:52:27.636Z,4.75
2019-01-02T09:55:16.791Z,4.75
2019-01-02T09:58:43.644Z,4.72
2019-01-02T10:01:43.814Z,4.70
2019-01-02T10:05:10.585Z,4.78
2019-01-02T10:08:14.023Z,4.81
2019-01-02T10:11:33.362Z,4.81
2019-01-02T10:14:36.785Z,4.86
2019-01-02T10:18:03.669Z,4.89
2019-01-02T10:21:04.604Z,4.87
2019-01-02T10:24:17.885Z,4.93
2019-01-02T10:27:11.334Z,4.86
2019-01-02T10:30:38.645Z,4.91
2019-01-02T10:33:39.212Z,4.90
2019-01-02T10:37:04.418Z,4.89
2019-01-02T10:40:04.547Z,4.92
2019-01-02T10:43:31.481Z,4.94
2019-01-02T10:46:32.030Z,4.93
2019-01-02T10:49:59.018Z,4.89
2019-01-02T10:52:59.259Z,5.00
2019-01-02T10:56:09.979Z,4.93
2019-01-02T10:59:17.624Z,4.96
2019-01-02T11:02:44.448Z,4.98
2019-01-02T11:05:51.091Z,4.91
2019-01-02T11:09:19.786Z,4.93
2019-01-02T11:12:20.484Z,5.01
2019-01-02T11:15:42.522Z,4.97
2019-01-02T11:18:43.105Z,5.03
2019-01-02T11:22:00.732Z,5.08
2019-01-02T11:24:49.886Z,5.00
2019-01-02T11:28:16.726Z,4.97
2019-01-02T11:35:10.119Z,4.96
2019-01-02T11:38:10.810Z,5.03
2019-01-02T11:41:37.693Z,5.15
2019-01-02T11:45:07.196Z,5.13
2019-01-02T11:47:55.111Z,5.15
2019-01-02T11:50:36.356Z,5.22
2019-01-02T11:53:24.217Z,5.13
2019-01-02T11:56:05.418Z,5.19
2019-01-02T11:58:53.327Z,5.17
2019-01-02T12:01:34.557Z,5.20
2019-01-02T12:04:03.242Z,5.22
2019-01-02T12:06:44.721Z,5.19
2019-01-02T12:09:32.970Z,5.20
2019-01-02T12:12:13.931Z,5.15
2019-01-02T12:15:01.893Z,5.20
2019-01-02T12:17:43.589Z,5.15
2019-01-02T12:20:32.188Z,5.24
2019-01-02T12:23:14.642Z,5.27
2019-01-02T12:26:02.595Z,5.21
2019-01-02T12:28:45.718Z,5.20
2019-01-02T12:31:33.799Z,5.24
2019-01-02T12:34:15.140Z,5.19
2019-01-02T12:36:43.696Z,5.22
2019-01-02T12:39:24.398Z,5.18
2019-01-02T12:41:53.343Z,5.18
2019-01-02T12:44:34.714Z,5.24
2019-01-02T12:47:22.701Z,5.23
2019-01-02T12:50:04.434Z,5.22
2019-01-02T12:52:52.484Z,5.23
2019-01-02T12:55:33.985Z,5.24
2019-01-02T12:58:22.335Z,5.21
2019-01-02T13:01:15.506Z,5.22
2019-01-02T13:04:42.334Z,5.14
2019-01-02T13:07:45.645Z,5.24
2019-01-02T13:11:12.415Z,5.22
2019-01-02T13:14:18.969Z,5.16
2019-01-02T13:17:45.889Z,5.18
2019-01-02T13:21:15.336Z,5.18
2019-01-02T13:24:42.127Z,5.16
2019-01-02T13:27:42.242Z,5.13
2019-01-02T13:30:42.529Z,5.12
2019-01-02T13:34:09.259Z,5.21
2019-01-02T13:37:13.234Z,5.18
2019-01-02T13:40:40.221Z,5.15
2019-01-02T13:43:32.847Z,5.11
2019-01-02T13:46:59.610Z,5.14
2019-01-02T13:49:42.048Z,5.08
2019-01-02T13:52:30.096Z,5.06
2019-01-02T13:55:13.959Z,5.04
2019-01-02T13:58:01.846Z,5.09
2019-01-02T14:00:42.525Z,5.01
2019-01-02T14:03:30.881Z,4.97
2019-01-02T14:06:11.722Z,4.88
2019-01-02T14:08:59.678Z,4.86
2019-01-02T14:11:40.877Z,4.89
2019-01-02T14:14:29.392Z,4.87
2019-01-02T14:17:10.687Z,4.78
2019-01-02T14:19:58.543Z,4.77
2019-01-02T14:22:39.865Z,4.75
2019-01-02T14:25:20.940Z,4.65
2019-01-02T14:28:01.679Z,4.64
2019-01-02T14:30:50.870Z,4.69
2019-01-02T14:33:38.977Z,4.59
2019-01-02T14:36:27.147Z,4.57
2019-01-02T14:39:08.249Z,4.50
2019-01-02T14:41:37.066Z,4.49
2019-01-02T14:44:18.167Z,4.41
2019-01-02T14:47:06.092Z,4.37
2019-01-02T14:49:47.132Z,4.44
2019-01-02T14:52:35.111Z,4.33
2019-01-02T14:55:15.681Z,4.27
2019-01-02T14:58:03.834Z,4.26
2019-01-02T15:00:45.141Z,4.20
2019-01-02T15:03:33.094Z,4.13
2019-01-02T15:06:14.115Z,4.14
2019-01-02T15:08:42.710Z,3.98
2019-01-02T15:11:23.982Z,4.03
2019-01-02T15:14:11.933Z,3.93
2019-01-02T15:16:53.387Z,3.95
2019-01-02T15:19:41.526Z,3.85
2019-01-02T15:22:22.360Z,3.82
2019-01-02T15:25:03.797Z,3.71
2019-01-02T15:27:44.573Z,3.73
2019-01-02T15:30:32.468Z,3.65
2019-01-02T15:33:13.512Z,3.55
2019-01-02T15:36:01.616Z,3.54
2019-01-02T15:38:42.514Z,3.42
2019-01-02T15:41:30.551Z,3.39
2019-01-02T15:44:12.005Z,3.31
2019-01-02T15:47:00.001Z,3.18
2019-01-02T15:49:42.773Z,3.14
2019-01-02T15:52:32.273Z,3.01
2019-01-02T15:55:15.295Z,2.99
2019-01-02T15:58:03.140Z,2.79
2019-01-02T16:00:44.391Z,2.70
2019-01-02T16:03:32.293Z,2.69
2019-01-02T16:06:13.659Z,2.60
2019-01-02T16:09:01.523Z,2.64
2019-01-02T16:11:42.638Z,2.52
2019-01-02T16:14:30.693Z,2.49
2019-01-02T16:17:12.091Z,2.40
2019-01-02T16:19:40.580Z,2.53
2019-01-02T16:22:21.752Z,2.59
2019-01-02T16:25:03.121Z,2.56
2019-01-02T16:27:45.019Z,2.61
2019-01-02T16:30:13.389Z,2.59
2019-01-02T16:32:53.961Z,2.40
2019-01-02T16:35:41.869Z,2.20
2019-01-02T16:38:24.093Z,2.30
2019-01-02T16:41:11.868Z,2.20
2019-01-02T16:43:53.392Z,2.32
2019-01-02T16:46:41.420Z,2.18
2019-01-02T16:49:22.833Z,2.05
2019-01-02T16:52:10.904Z,2.15
2019-01-02T16:54:51.612Z,1.85
2019-01-02T16:57:20.261Z,2.00
2019-01-02T17:00:01.480Z,2.04
2019-01-02T17:02:49.360Z,1.90
2019-01-02T17:05:30.688Z,1.98
2019-01-02T17:08:19.034Z,1.97
2019-01-02T17:11:00.005Z,2.00
2019-01-02T17:13:47.893Z,1.69
2019-01-02T17:16:29.355Z,1.86
2019-01-02T17:19:17.249Z,1.85
2019-01-02T17:21:58.333Z,1.87
2019-01-02T17:24:39.525Z,1.86
2019-01-02T17:27:20.493Z,1.71
2019-01-02T17:30:08.816Z,1.67
2019-01-02T17:32:49.424Z,1.52
2019-01-02T17:35:37.553Z,1.64
2019-01-02T17:38:18.375Z,1.69
2019-01-02T17:41:06.542Z,1.69
2019-01-02T17:43:47.377Z,1.71
2019-01-02T17:46:35.238Z,1.65
2019-01-02T17:49:16.514Z,1.68
2019-01-02T17:52:04.554Z,1.52
2019-01-02T17:54:45.913Z,1.63
2019-01-02T17:57:33.817Z,1.60
2019-01-02T18:00:15.025Z,1.62
2019-01-02T18:03:02.972Z,1.60
2019-01-02T18:05:44.240Z,1.55
2019-01-02T18:08:32.208Z,1.64
2019-01-02T18:11:13.817Z,1.50
2019-01-02T18:14:01.857Z,1.59
2019-01-02T18:16:42.788Z,1.58
2019-01-02T18:19:30.693Z,1.55
2019-01-02T18:22:12.153Z,1.18
2019-01-02T18:24:53.397Z,1.33
2019-01-02T18:27:34.066Z,1.40
2019-01-02T18:30:22.051Z,1.39
2019-01-02T18:33:03.337Z,1.37
2019-01-02T18:35:51.286Z,1.33
2019-01-02T18:38:32.302Z,1.38
2019-01-02T18:41:00.849Z,1.24
2019-01-02T18:43:41.308Z,1.27
2019-01-02T18:46:29.164Z,1.13
2019-01-02T18:49:10.404Z,1.13
2019-01-02T18:51:58.261Z,1.20
2019-01-02T18:54:39.192Z,1.00
2019-01-02T18:57:27.285Z,1.10
2019-01-02T19:00:09.903Z,0.84
2019-01-02T19:02:57.892Z,0.74
2019-01-02T19:05:38.498Z,1.10
2019-01-02T19:08:26.546Z,1.08
2019-01-02T19:11:10.916Z,0.93
2019-01-02T19:13:58.811Z,1.03
2019-01-02T19:16:40.175Z,0.97
2019-01-02T19:19:08.826Z,1.01
2019-01-02T19:21:51.998Z,0.93
2019-01-02T19:24:32.931Z,0.74
2019-01-02T19:27:14.103Z,0.79
2019-01-02T19:30:03.072Z,0.86
2019-01-02T19:32:46.317Z,0.72
2019-01-02T19:35:34.513Z,0.56
2019-01-02T19:38:03.833Z,0.42
2019-01-02T19:40:52.891Z,0.33
2019-01-02T19:43:33.641Z,0.50
2019-01-02T19:46:21.584Z,0.62
2019-01-02T19:49:03.271Z,0.43
2019-01-02T19:51:51.172Z,0.26
2019-01-02T19:54:31.558Z,0.09
2019-01-02T19:57:20.021Z,0.06
2019-01-02T20:00:00.437Z,0.00
2019-01-02T20:02:48.787Z,0.00
2019-01-02T20:05:29.916Z,0.03
2019-01-02T20:07:59.343Z,0.10
2019-01-02T20:10:40.305Z,0.05
2019-01-02T20:13:28.522Z,0.19
2019-01-02T20:16:09.451Z,0.05
2019-01-02T20:18:38.227Z,0.12
2019-01-02T20:21:19.370Z,-0.02
2019-01-02T20:24:07.410Z,0.06
2019-01-02T20:26:46.825Z,0.03
2019-01-02T20:29:35.127Z,-0.16
2019-01-02T20:32:16.360Z,0.03
2019-01-02T20:35:04.437Z,-0.13
2019-01-02T20:37:45.619Z,0.00
2019-01-02T20:40:33.509Z,-0.08
2019-01-02T20:43:15.689Z,-0.18
2019-01-02T20:46:03.681Z,-0.19
2019-01-02T20:48:46.339Z,-0.22
2019-01-02T20:51:34.427Z,-0.25
2019-01-02T20:54:17.650Z,-0.11
2019-01-02T20:57:05.729Z,-0.26
2019-01-02T20:59:47.963Z,-0.40
2019-01-02T21:02:36.156Z,-0.07
2019-01-02T21:05:19.339Z,-0.18
2019-01-02T21:08:07.188Z,-0.29
2019-01-02T21:10:48.305Z,-0.31
2019-01-02T21:13:36.178Z,-0.35
2019-01-02T21:16:17.759Z,-0.47
2019-01-02T21:19:05.818Z,-0.46
2019-01-02T21:21:46.793Z,-0.52
2019-01-02T21:24:34.647Z,-0.52
2019-01-02T21:27:15.503Z,-0.53
2019-01-02T21:30:04.223Z,-0.55
2019-01-02T21:32:47.116Z,-0.55
2019-01-02T21:35:35.312Z,-0.66
2019-01-02T21:38:17.862Z,-0.59
2019-01-02T21:41:06.079Z,-0.56
2019-01-02T21:43:47.515Z,-0.46
2019-01-02T21:46:35.481Z,-0.53
2019-01-02T21:49:16.674Z,-0.51
2019-01-02T21:52:04.586Z,-0.61
2019-01-02T21:54:45.738Z,-0.43
2019-01-02T21:57:33.694Z,-0.60
2019-01-02T22:00:14.799Z,-0.61
2019-01-02T22:03:03.738Z,-0.70
2019-01-02T22:06:05.641Z,-0.71
2019-01-02T22:08:53.633Z,-0.74
2019-01-02T22:11:34.687Z,-0.71
2019-01-02T22:14:23.922Z,-0.70
2019-01-02T22:17:06.171Z,-0.71
2019-01-02T22:19:54.330Z,-0.74
2019-01-02T22:22:23.367Z,-0.86
2019-01-02T22:25:04.387Z,-0.88
2019-01-02T22:27:45.353Z,-0.58
2019-01-02T22:30:33.631Z,-0.52
2019-01-02T22:33:14.737Z,-0.45
2019-01-02T22:36:02.652Z,-0.38
2019-01-02T22:38:43.836Z,-0.26
2019-01-02T22:41:31.757Z,-0.28
2019-01-02T22:44:12.274Z,-0.38
2019-01-02T22:47:00.324Z,-0.31
2019-01-02T22:49:41.633Z,-0.25
2019-01-02T22:52:29.616Z,-0.27
2019-01-02T22:55:10.626Z,-0.20
2019-01-02T22:57:58.898Z,-0.21
2019-01-02T23:00:59.230Z,-0.19
2019-01-02T23:04:06.562Z,-0.14
2019-01-02T23:07:06.510Z,-0.20
2019-01-02T23:10:14.019Z,-0.13
2019-01-02T23:13:13.903Z,-0.24
2019-01-02T23:16:41.025Z,-0.16
2019-01-02T23:19:41.588Z,-0.47
2019-01-02T23:22:49.779Z,-0.51
2019-01-02T23:25:50.191Z,-0.63
2019-01-02T23:28:57.820Z,-0.57
2019-01-02T23:35:04.323Z,-0.49
2019-01-02T23:38:10.763Z,-0.66
2019-01-02T23:41:18.198Z,-0.71
2019-01-02T23:44:18.992Z,-0.69
2019-01-02T23:47:26.483Z,-0.79
2019-01-02T23:50:27.462Z,-0.86
2019-01-02T23:53:34.896Z,-0.91
2019-01-02T23:56:36.879Z,-0.91
2019-01-02T23:59:44.417Z,-0.82
